Date,TemperatureHighF,TemperatureAvgF,TemperatureLowF,DewpointHighF,DewpointAvgF,DewpointLowF,HumidityHigh,HumidityAvg,HumidityLow,PressureMaxIn,PressureMinIn,WindSpeedMaxMPH,WindSpeedAvgMPH,GustSpeedMaxMPH,PrecipitationSumIn
2014-8-28,71.0,65.0,58.1,60.0,57.9,53.0,84,78,69,30.04,29.98,7,2,8,0.00
2014-8-29,65.3,59.7,55.6,58.0,53.5,50.0,92,80,61,29.98,29.92,6,2,12,0.00
2014-8-30,67.5,59.7,55.1,59.0,55.9,53.0,96,87,73,29.94,29.87,6,1,8,0.00
2014-8-31,66.5,59.6,55.1,57.0,53.9,51.0,92,82,68,30.04,29.94,6,2,10,0.00
2014-9-1,70.1,61.5,53.9,58.0,55.0,52.0,97,80,55,30.07,29.96,7,2,11,0.00
2014-9-2,62.2,57.5,55.0,58.0,55.2,54.0,98,92,76,29.96,29.79,5,1,7,0.37
2014-9-3,62.4,58.0,53.2,55.0,52.9,51.0,95,83,71,30.11,29.87,5,0,8,0.00
2014-9-4,65.3,59.7,53.9,56.0,53.6,51.0,96,81,63,30.17,30.09,9,2,11,0.00
2014-9-5,71.0,64.1,59.3,58.0,55.6,53.0,90,75,55,30.19,30.05,9,4,12,0.00
2014-9-6,76.2,67.4,60.9,58.0,54.3,49.0,89,65,40,30.07,29.85,9,2,11,0.00
2014-9-7,75.6,64.6,55.3,56.0,52.9,48.0,91,67,48,29.88,29.77,6,1,9,0.00
2014-9-8,66.2,57.9,52.1,57.0,54.3,51.0,97,88,73,29.93,29.80,9,3,13,0.00
2014-9-9,67.2,59.0,53.4,58.0,54.8,52.0,97,86,70,30.12,29.93,6,1,8,0.00
2014-9-10,66.2,60.4,52.3,52.0,40.6,29.0,96,54,25,30.25,30.11,15,3,19,0.00
2014-9-11,65.6,61.1,56.3,45.0,37.3,31.0,56,42,30,30.33,30.15,9,2,22,0.00
2014-9-12,68.4,60.6,52.6,52.0,45.1,38.0,82,58,33,30.15,29.97,8,2,12,0.00
2014-9-13,72.4,64.3,57.4,53.0,48.1,42.0,80,58,36,30.00,29.86,9,2,12,0.00
2014-9-14,71.2,62.9,55.6,55.0,47.8,43.0,84,60,39,29.94,29.85,8,2,12,0.00
2014-9-15,71.8,63.5,56.9,56.0,50.7,44.0,86,64,47,29.89,29.79,5,0,12,0.00
2014-9-16,69.2,62.0,56.1,56.0,52.0,45.0,85,71,47,29.87,29.82,8,1,15,0.00
2014-9-17,63.5,59.6,57.0,58.0,55.9,54.0,97,88,80,29.84,29.71,4,1,9,0.02
2014-9-18,60.7,58.5,56.6,60.0,57.7,56.0,99,97,95,29.94,29.72,5,2,8,0.06
2014-9-19,67.6,60.7,56.7,62.0,58.8,56.0,99,93,80,30.13,29.94,8,1,9,0.04
2014-9-20,65.7,60.4,56.6,58.0,57.3,55.0,100,90,73,30.14,29.90,10,4,14,0.07
2014-9-21,73.5,62.9,56.5,58.0,56.4,55.0,94,80,57,29.89,29.80,7,2,11,0.00
2014-9-22,67.5,61.0,56.8,60.0,57.1,55.0,98,87,71,29.98,29.88,7,1,9,0.01
2014-9-23,61.4,59.3,57.6,61.0,57.8,55.0,98,94,88,29.89,29.61,4,0,9,0.20
2014-9-24,64.7,60.8,58.7,61.0,58.7,56.0,99,93,83,29.83,29.59,6,1,10,0.06
2014-9-25,67.1,59.6,55.7,59.0,56.0,54.0,97,88,72,29.85,29.81,3,0,8,0.03
2014-9-26,60.0,57.5,55.5,60.0,56.6,55.0,99,97,89,30.11,29.83,5,1,11,0.07
2014-9-27,59.0,54.0,49.7,56.0,53.1,50.0,100,96,86,30.17,30.10,5,1,8,0.04
2014-9-28,63.5,55.6,52.4,58.0,54.4,52.0,99,95,78,30.11,29.87,5,1,10,0.03
2014-9-29,56.1,54.3,53.4,55.0,53.6,52.0,98,97,85,29.93,29.84,5,1,10,0.02
2014-9-30,64.0,57.3,53.7,53.0,50.5,49.0,90,78,62,30.13,29.93,4,1,8,0.02
2014-10-1,58.3,55.0,52.1,54.0,50.8,48.0,95,86,75,30.20,30.13,5,1,10,0.01
2014-10-2,58.4,54.1,50.5,51.0,47.8,41.0,91,80,57,30.33,30.19,5,1,8,0.00
2014-10-3,59.2,54.5,49.5,51.0,49.3,45.0,100,83,62,30.32,30.14,2,0,5,0.01
2014-10-4,62.5,58.1,55.0,56.0,51.4,47.0,88,78,69,30.21,30.15,3,0,5,0.00
2014-10-5,66.7,60.2,56.3,60.0,56.8,53.0,93,88,78,30.16,30.07,5,1,9,0.01
2014-10-6,61.5,58.0,54.6,59.0,56.5,54.0,99,95,86,30.07,29.98,6,1,11,0.00
2014-10-7,63.1,58.6,54.1,59.0,57.3,54.0,99,95,86,29.98,29.91,5,1,7,0.01
2014-10-8,58.1,54.5,51.8,57.0,54.0,51.0,99,98,94,30.04,29.95,2,0,3,0.00
2014-10-9,60.6,54.7,50.8,57.0,53.8,51.0,100,97,87,30.07,30.00,6,0,7,0.00
2014-10-10,56.4,54.5,50.7,56.0,53.9,50.0,99,98,95,30.04,29.97,5,1,9,0.00
2014-10-11,63.0,56.0,53.0,58.0,54.3,51.0,99,94,78,30.15,29.97,6,2,9,0.01
2014-10-12,57.4,54.5,51.3,56.0,53.0,51.0,98,94,88,30.23,30.02,5,1,8,0.00
2014-10-13,63.7,53.7,51.3,56.0,49.7,50.0,98,84,61,30.03,29.59,5,1,15,0.00
2014-10-14,59.0,53.3,49.9,54.0,51.5,50.0,99,94,82,29.81,29.53,4,1,8,0.01
2014-10-15,55.1,52.5,50.6,54.0,51.8,50.0,100,97,94,29.93,29.48,7,1,10,0.01
2014-10-16,62.0,56.0,51.6,52.0,50.2,48.0,98,82,63,29.99,29.80,8,1,12,0.00
2014-10-17,60.3,56.1,51.4,55.0,51.0,46.0,96,83,68,29.80,29.63,6,1,14,0.01
2014-10-18,65.4,59.4,55.1,59.0,56.7,54.0,98,91,78,29.91,29.78,7,1,9,0.01
2014-10-19,69.4,62.2,55.5,58.0,55.6,53.0,95,80,63,29.79,29.59,4,1,15,0.00
2014-10-20,59.4,55.0,53.5,58.0,54.1,53.0,98,94,93,29.75,29.64,4,1,10,0.01
2014-10-21,59.8,55.5,52.1,55.0,52.5,51.0,98,90,76,29.85,29.58,9,2,21,0.00
2014-10-22,58.2,54.1,50.0,54.0,52.6,49.0,99,95,75,29.67,29.47,7,1,30,0.00
2014-10-23,54.3,50.6,47.9,53.0,49.0,45.0,98,93,77,29.98,29.63,5,1,11,0.01
2014-10-24,54.4,50.8,48.2,48.0,47.5,46.0,95,88,75,30.05,29.80,5,1,12,0.01
2014-10-25,54.4,50.4,48.4,53.0,49.0,46.0,99,95,77,29.80,29.21,12,2,24,0.00
2014-10-26,52.1,48.7,46.0,48.0,46.8,45.0,98,93,81,30.12,29.64,6,1,15,0.01
2014-10-27,54.1,49.8,46.0,48.0,46.6,46.0,98,89,77,30.14,29.86,5,1,10,0.01
2014-10-28,56.1,53.1,49.2,54.0,50.7,46.0,98,91,78,29.86,29.73,7,2,23,0.00
2014-10-29,59.8,54.9,52.1,55.0,53.1,51.0,99,93,81,30.11,29.86,6,1,13,0.00
2014-10-30,56.9,53.0,50.4,55.0,51.3,48.0,98,94,88,30.01,29.66,5,1,11,0.01
2014-10-31,52.1,50.0,47.4,52.0,49.7,47.0,100,99,98,29.88,29.71,5,1,7,0.01
2014-11-1,50.2,47.3,45.4,48.0,46.3,45.0,99,96,84,30.02,29.86,5,1,7,0.00
2014-11-2,51.4,49.2,47.0,51.0,48.4,47.0,99,97,90,30.09,30.02,8,1,12,0.00
2014-11-3,53.7,52.4,50.9,53.0,52.2,51.0,99,99,98,30.07,29.88,6,1,15,0.00
2014-11-4,54.8,52.7,48.7,54.0,51.5,48.0,99,96,87,30.26,29.90,7,1,11,0.01
2014-11-5,57.1,53.5,48.9,55.0,51.5,48.0,98,93,83,30.26,29.94,5,1,7,0.01
2014-11-6,59.9,55.6,51.6,56.0,52.5,46.0,99,89,76,30.27,29.64,10,2,30,0.00
2014-11-7,53.2,49.3,46.2,49.0,46.2,44.0,98,89,80,30.50,30.27,5,0,10,0.00
2014-11-8,47.9,46.9,45.9,47.0,45.9,45.0,98,96,92,30.40,30.03,2,0,4,0.00
2014-11-9,52.2,48.9,46.5,48.0,46.8,46.0,99,92,80,30.06,29.79,6,2,17,0.00
2014-11-10,49.0,46.9,44.4,46.0,40.3,24.0,95,79,42,30.24,30.07,10,3,16,0.00
2014-11-11,45.9,41.4,37.2,25.0,21.2,14.0,53,45,38,30.39,30.22,9,3,20,0.00
2014-11-12,41.8,37.7,34.4,20.0,15.1,12.0,47,40,31,30.38,30.12,4,1,13,0.00
2014-11-13,43.4,39.5,34.9,29.0,16.0,11.0,62,39,29,30.11,29.99,8,2,21,0.00
2014-11-14,43.2,39.7,37.4,28.0,17.4,12.0,58,41,34,30.31,30.04,11,3,18,0.00
2014-11-15,42.1,39.1,35.1,31.0,20.1,11.0,70,48,34,30.55,30.31,5,1,14,0.00
2014-11-16,42.0,39.1,36.1,40.0,31.4,18.0,93,75,46,30.54,30.40,9,3,11,0.00
2014-11-17,43.2,40.6,37.5,40.0,32.9,25.0,93,75,57,30.41,30.26,7,2,11,0.00
2014-11-18,43.5,42.3,41.1,41.0,39.7,38.0,92,90,85,30.11,30.07,3,0,8,0.00
2014-11-19,47.4,44.2,41.6,42.0,37.8,33.0,87,78,68,30.08,29.80,8,1,11,0.00
2014-11-20,49.5,48.1,45.8,48.0,45.4,37.0,96,90,63,29.93,29.80,8,1,15,0.01
2014-11-21,50.5,49.2,46.6,48.0,47.1,42.0,98,92,82,29.83,29.23,9,2,22,0.00
2014-11-22,49.2,46.7,43.8,45.0,42.9,41.0,95,87,79,30.07,29.45,8,2,12,0.00
2014-11-23,50.8,47.0,44.2,46.0,43.4,41.0,97,87,72,30.32,29.97,9,2,16,0.00
2014-11-24,47.9,46.2,42.9,47.0,44.6,41.0,98,94,86,30.34,30.02,10,2,11,0.00
2014-11-25,47.8,45.3,43.8,48.0,45.2,44.0,99,99,98,30.23,30.10,5,1,8,0.00
2014-11-26,53.7,50.5,44.4,54.0,50.5,44.0,100,100,99,30.12,29.74,7,1,10,0.00
2014-11-27,55.3,52.9,51.5,55.0,52.2,51.0,99,97,94,29.78,29.54,6,2,14,0.01
2014-11-28,52.6,43.6,36.4,52.0,40.1,29.0,98,88,67,29.55,29.45,6,1,15,0.01
2014-11-29,36.6,27.3,24.5,34.0,13.6,8.0,89,57,42,30.25,29.53,13,3,22,0.00
2014-11-30,33.2,29.2,24.5,25.0,16.6,9.0,72,60,46,30.27,30.12,11,2,15,0.00
2014-12-1,35.2,31.9,28.4,29.0,25.3,20.0,86,77,66,30.25,30.12,3,0,7,0.00
2014-12-2,40.7,36.5,32.8,37.0,29.6,22.0,89,76,60,30.25,29.97,10,4,20,0.09
2014-12-3,41.1,39.4,36.0,37.0,31.4,25.0,88,74,56,29.97,29.77,9,3,15,0.01
2014-12-4,41.3,39.8,37.7,38.0,33.0,27.0,96,77,59,29.94,29.79,7,1,12,0.02
2014-12-5,46.4,43.4,39.0,46.0,42.8,38.0,99,98,96,29.97,29.74,2,0,4,0.00
2014-12-6,49.0,47.6,45.6,49.0,47.2,45.0,99,98,95,30.21,29.75,6,1,11,0.01
2014-12-7,51.2,48.1,46.0,49.0,46.5,44.0,99,94,76,30.21,29.95,2,0,5,0.00
2014-12-8,57.2,53.2,49.6,50.0,45.8,43.0,97,77,64,29.98,29.70,6,2,22,0.00
2014-12-9,55.8,53.5,51.1,54.0,51.6,50.0,98,93,85,29.81,29.57,9,2,23,0.00
2014-12-10,58.7,53.6,47.8,54.0,51.6,47.0,98,92,80,29.62,29.15,15,2,21,0.00
2014-12-11,54.7,48.7,46.8,49.0,46.8,44.0,99,93,76,29.52,29.09,11,1,24,0.00
2014-12-12,51.8,47.3,44.1,47.0,43.6,42.0,96,85,76,30.04,0.00,10,1,24,0.00
2014-12-13,46.3,44.4,41.0,45.0,43.3,40.0,98,95,92,30.25,30.04,4,0,10,0.00
2014-12-14,45.2,41.1,37.7,40.0,36.5,31.0,98,85,64,30.23,30.01,5,0,13,0.00
2014-12-15,48.6,44.5,40.4,39.0,34.3,30.0,74,68,59,30.00,29.83,2,0,5,0.00
2014-12-16,50.1,47.1,43.6,42.0,38.6,34.0,85,73,59,29.84,29.81,1,0,8,0.00
2014-12-17,46.3,44.7,43.8,44.0,41.6,39.0,97,89,76,29.90,29.79,2,0,4,0.00
2014-12-18,51.9,47.6,44.3,47.0,45.0,43.0,98,90,79,29.91,29.61,7,1,19,0.00
2014-12-19,48.5,46.9,42.8,48.0,44.5,42.0,98,91,80,29.90,29.70,7,1,12,0.00
2014-12-20,53.6,48.5,45.5,52.0,45.4,41.0,99,89,76,29.79,29.33,10,2,27,0.00
2014-12-21,52.4,50.2,47.1,49.0,46.1,44.0,92,85,78,30.09,29.47,7,1,23,0.00
2014-12-22,49.1,45.5,42.8,45.0,41.3,38.0,93,85,75,30.38,30.09,5,1,9,0.00
2014-12-23,47.0,45.3,43.8,46.0,43.2,40.0,98,92,76,30.31,30.01,7,2,13,0.00
2014-12-24,45.4,43.2,41.5,44.0,41.2,39.0,99,93,80,30.03,29.87,5,1,8,0.00
2014-12-25,45.3,42.7,40.1,41.0,38.9,37.0,95,86,78,30.29,30.03,4,1,6,0.00
2014-12-26,43.7,41.6,40.2,42.0,40.1,39.0,96,94,90,30.37,30.27,2,0,6,0.00
2014-12-27,46.4,43.4,41.1,45.0,41.8,39.0,99,94,79,30.29,29.98,6,1,12,0.00
2014-12-28,44.8,42.1,39.2,40.0,37.8,31.0,92,84,71,30.22,30.06,12,3,18,0.00
2014-12-29,39.3,36.3,30.6,30.0,18.9,10.0,69,48,37,30.78,30.23,17,6,31,0.01
2014-12-30,33.6,31.3,28.6,22.0,16.2,8.0,67,54,39,30.89,30.75,15,1,22,0.00
2014-12-31,36.1,33.5,30.6,31.0,25.9,18.0,84,74,55,30.75,30.43,7,1,10,0.00
2015-1-1,37.4,35.3,33.0,33.0,31.1,28.0,91,84,74,30.43,30.19,5,1,7,0.02
2015-1-2,39.7,38.0,36.5,38.0,36.5,33.0,98,94,87,30.22,30.06,6,1,10,0.00